createdAt,value
2022-09-01T00:02:10.234Z,100392.39
2022-09-01T00:07:18.131Z,100385.02
2022-09-01T00:12:26.187Z,100384.94
2022-09-01T00:17:34.190Z,100389.59
2022-09-01T00:22:42.211Z,100387.05
2022-09-01T00:27:49.750Z,100382.52
2022-09-01T00:32:56.973Z,100379.21
2022-09-01T00:38:04.489Z,100376.56
2022-09-01T00:43:20.149Z,100373.88
2022-09-01T00:48:27.735Z,100372.41
2022-09-01T00:53:37.107Z,100367.95
2022-09-01T00:58:44.842Z,100365.02
2022-09-01T01:03:52.075Z,100365.05
2022-09-01T01:09:00.828Z,100365.08
2022-09-01T01:14:12.531Z,100361.48
2022-09-01T01:19:39.166Z,100357.68
2022-09-01T01:24:48.220Z,100357.21
2022-09-01T01:29:56.308Z,100356.35
2022-09-01T01:35:06.566Z,100349.05
2022-09-01T01:40:16.028Z,100341.40
2022-09-01T01:45:26.123Z,100339.57
2022-09-01T01:50:36.109Z,100337.05
2022-09-01T01:55:44.740Z,100340.41
2022-09-01T02:00:55.217Z,100345.83
2022-09-01T02:06:08.433Z,100344.98
2022-09-01T02:11:17.669Z,100343.37
2022-09-01T02:16:26.286Z,100334.33
2022-09-01T02:21:34.068Z,100332.50
2022-09-01T02:26:46.456Z,100332.75
2022-09-01T02:31:53.128Z,100332.18
2022-09-01T02:37:01.595Z,100330.73
2022-09-01T02:42:10.889Z,100331.48
2022-09-01T02:47:18.024Z,100328.48
2022-09-01T02:52:26.007Z,100326.02
2022-09-01T02:57:34.837Z,100327.99
2022-09-01T03:02:43.626Z,100324.40
2022-09-01T03:07:54.749Z,100328.14
2022-09-01T03:13:03.249Z,100327.29
2022-09-01T03:18:12.799Z,100329.61
2022-09-01T03:23:21.433Z,100332.63
2022-09-01T03:28:29.926Z,100335.06
2022-09-01T03:33:38.507Z,100336.98
2022-09-01T03:38:49.237Z,100327.32
2022-09-01T03:43:58.507Z,100329.02
2022-09-01T03:49:13.738Z,100325.98
2022-09-01T03:54:22.477Z,100329.10
2022-09-01T03:59:30.725Z,100334.38
2022-09-01T04:04:38.747Z,100334.55
2022-09-01T04:09:46.741Z,100336.34
2022-09-01T04:14:54.256Z,100335.63
2022-09-01T04:20:09.246Z,100336.31
2022-09-01T04:25:17.315Z,100344.17
2022-09-01T04:30:34.306Z,100340.05
2022-09-01T04:35:43.275Z,100340.65
2022-09-01T04:40:51.275Z,100337.52
2022-09-01T04:46:00.300Z,100355.41
2022-09-01T04:51:12.678Z,100361.84
2022-09-01T04:56:37.036Z,100354.77
2022-09-01T05:01:55.966Z,100360.05
2022-09-01T05:07:04.990Z,100348.83
2022-09-01T05:12:17.362Z,100329.38
2022-09-01T05:17:29.717Z,100329.46
2022-09-01T05:22:39.166Z,100328.94
2022-09-01T05:27:50.076Z,100332.02
2022-09-01T05:33:00.237Z,100334.23
2022-09-01T05:38:16.181Z,100334.55
2022-09-01T05:43:24.047Z,100331.81
2022-09-01T05:48:32.400Z,100330.64
2022-09-01T05:53:39.922Z,100326.92
2022-09-01T06:04:18.518Z,100325.77
2022-09-01T06:09:27.158Z,100328.16
2022-09-01T06:14:35.477Z,100323.92
2022-09-01T06:19:43.238Z,100327.29
2022-09-01T06:24:56.650Z,100327.70
2022-09-01T06:30:15.520Z,100325.61
2022-09-01T06:35:30.301Z,100329.05
2022-09-01T06:40:40.206Z,100325.38
2022-09-01T06:45:50.578Z,100326.91
2022-09-01T06:51:18.554Z,100329.86
2022-09-01T06:56:31.971Z,100340.28
2022-09-01T07:01:40.295Z,100342.30
2022-09-01T07:07:00.500Z,100345.84
2022-09-01T07:12:28.145Z,100333.10
2022-09-01T07:17:35.869Z,100354.38
2022-09-01T07:28:15.868Z,100359.70
2022-09-01T07:44:29.724Z,100368.27
2022-09-01T07:50:37.100Z,100365.73
2022-09-01T07:55:24.687Z,100363.58
2022-09-01T08:00:34.477Z,100366.21
2022-09-01T08:05:43.881Z,100365.10
2022-09-01T08:10:51.236Z,100371.58
2022-09-01T08:16:07.113Z,100369.77
2022-09-01T08:21:16.613Z,100372.45
2022-09-01T08:26:43.829Z,100372.70
2022-09-01T08:31:51.982Z,100377.75
2022-09-01T08:37:00.903Z,100372.80
2022-09-01T08:42:17.563Z,100360.09
2022-09-01T08:47:35.579Z,100365.70
2022-09-01T08:53:08.998Z,100372.36
2022-09-01T08:58:19.848Z,100369.49
2022-09-01T09:04:10.813Z,100371.58
2022-09-01T09:09:18.400Z,100371.19
2022-09-01T09:14:41.711Z,100364.84
2022-09-01T09:19:49.625Z,100361.77
2022-09-01T09:25:01.190Z,100360.78
2022-09-01T09:30:13.213Z,100360.13
2022-09-01T09:35:23.791Z,100352.92
2022-09-01T09:40:39.587Z,100357.42
2022-09-01T09:46:25.540Z,100357.59
2022-09-01T09:51:33.141Z,100353.48
2022-09-01T09:56:42.065Z,100360.77
2022-09-01T10:01:53.704Z,100356.16
2022-09-01T10:07:01.241Z,100356.59
2022-09-01T10:12:12.523Z,100353.58
2022-09-01T10:17:22.991Z,100359.41
2022-09-01T10:22:33.063Z,100363.20
2022-09-01T10:27:44.257Z,100364.95
2022-09-01T10:32:56.009Z,100363.35
2022-09-01T10:38:08.032Z,100359.64
2022-09-01T10:43:38.610Z,100367.48
2022-09-01T10:48:48.829Z,100369.26
2022-09-01T10:54:04.601Z,100370.10
2022-09-01T10:59:38.694Z,100378.02
2022-09-01T11:05:16.589Z,100378.09
2022-09-01T11:10:36.726Z,100375.27
2022-09-01T11:15:45.920Z,100378.05
2022-09-01T11:20:53.816Z,100378.69
2022-09-01T11:26:19.232Z,100372.99
2022-09-01T11:31:34.716Z,100370.94
2022-09-01T11:36:53.403Z,100364.67
2022-09-01T11:42:04.785Z,100364.79
2022-09-01T11:47:16.935Z,100359.17
2022-09-01T11:52:27.529Z,100358.55
2022-09-01T11:57:37.546Z,100362.36
2022-09-01T12:02:49.863Z,100363.10
2022-09-01T12:07:57.966Z,100365.04
2022-09-01T12:13:08.321Z,100365.92
2022-09-01T12:18:22.623Z,100365.05
2022-09-01T12:23:31.657Z,100369.92
2022-09-01T12:28:42.021Z,100368.42
2022-09-01T12:33:50.504Z,100370.27
2022-09-01T12:38:59.336Z,100370.70
2022-09-01T12:44:30.835Z,100369.27
2022-09-01T12:49:50.368Z,100368.88
2022-09-01T13:01:01.914Z,100362.41
2022-09-01T13:06:10.405Z,100361.34
2022-09-01T13:11:20.205Z,100364.23
2022-09-01T13:16:27.844Z,100364.45
2022-09-01T13:21:37.077Z,100369.77
2022-09-01T13:27:20.221Z,100370.87
2022-09-01T13:32:19.050Z,100370.60
2022-09-01T13:37:28.037Z,100370.29
2022-09-01T13:42:35.537Z,100371.48
2022-09-01T13:53:11.257Z,100370.34
2022-09-01T13:58:18.666Z,100374.58
2022-09-01T14:03:27.073Z,100380.38
2022-09-01T14:08:34.955Z,100385.81
2022-09-01T14:13:42.476Z,100386.81
2022-09-01T14:18:50.116Z,100382.64
2022-09-01T14:23:57.406Z,100379.41
2022-09-01T14:29:04.646Z,100379.20
2022-09-01T14:34:12.542Z,100373.05
2022-09-01T14:39:19.768Z,100373.09
2022-09-01T14:44:27.248Z,100377.23
2022-09-01T14:49:37.475Z,100378.39
2022-09-01T14:54:45.493Z,100373.42
2022-09-01T14:59:52.907Z,100370.55
2022-09-01T15:05:00.529Z,100371.90
2022-09-01T15:10:09.836Z,100371.93
2022-09-01T15:15:17.710Z,100378.55
2022-09-01T15:20:43.131Z,100376.98
2022-09-01T15:25:52.388Z,100376.13
2022-09-01T15:31:00.448Z,100373.34
2022-09-01T15:36:08.832Z,100367.78
2022-09-01T15:41:20.546Z,100372.37
2022-09-01T15:46:33.119Z,100369.71
2022-09-01T15:51:41.532Z,100373.00
2022-09-01T15:56:49.749Z,100373.47
2022-09-01T16:01:58.370Z,100374.53
2022-09-01T16:07:06.180Z,100376.93
2022-09-01T16:12:13.799Z,100376.05
2022-09-01T16:17:28.333Z,100373.50
2022-09-01T16:22:38.471Z,100373.70
2022-09-01T16:27:47.557Z,100379.75
2022-09-01T16:32:55.021Z,100380.83
2022-09-01T16:38:15.241Z,100384.03
2022-09-01T16:43:31.844Z,100385.86
2022-09-01T16:48:47.529Z,100390.23
2022-09-01T16:54:14.209Z,100391.02
2022-09-01T16:59:36.456Z,100393.58
2022-09-01T17:04:48.392Z,100394.51
2022-09-01T17:10:04.294Z,100399.08
2022-09-01T17:15:15.282Z,100396.92
2022-09-01T17:20:25.226Z,100400.52
2022-09-01T17:25:37.627Z,100403.19
2022-09-01T17:30:53.541Z,100404.51
2022-09-01T17:36:14.237Z,100411.30
2022-09-01T17:41:34.791Z,100414.38
2022-09-01T17:46:47.939Z,100416.98
2022-09-01T17:52:04.369Z,100423.64
2022-09-01T17:57:21.413Z,100426.80
2022-09-01T18:02:53.293Z,100434.81
2022-09-01T18:08:04.559Z,100437.25
2022-09-01T18:13:36.128Z,100439.33
2022-09-01T18:18:49.654Z,100448.16
2022-09-01T18:24:03.201Z,100453.56
2022-09-01T18:29:10.633Z,100460.91
2022-09-01T18:34:28.526Z,100461.34
2022-09-01T18:39:47.928Z,100467.61
2022-09-01T18:45:05.792Z,100471.91
2022-09-01T18:50:23.663Z,100474.72
2022-09-01T18:55:40.521Z,100478.42
2022-09-01T19:00:56.839Z,100478.58
2022-09-01T19:06:26.099Z,100480.76
2022-09-01T19:11:44.229Z,100483.67
2022-09-01T19:17:06.906Z,100486.02
2022-09-01T19:22:23.214Z,100486.83
2022-09-01T19:27:36.809Z,100486.56
2022-09-01T19:32:44.270Z,100487.79
2022-09-01T19:37:52.192Z,100497.11
2022-09-01T19:43:05.188Z,100498.55
2022-09-01T19:48:17.674Z,100503.70
2022-09-01T19:53:37.410Z,100507.66
2022-09-01T19:58:53.810Z,100508.97
2022-09-01T20:04:08.469Z,100511.20
2022-09-01T20:09:22.708Z,100511.08
2022-09-01T20:14:52.768Z,100509.43
2022-09-01T20:20:09.889Z,100505.30
2022-09-01T20:25:21.052Z,100506.88
2022-09-01T20:30:31.611Z,100508.69
2022-09-01T20:35:44.597Z,100512.69
2022-09-01T20:40:52.006Z,100515.98
2022-09-01T20:45:59.901Z,100515.00
2022-09-01T20:51:13.353Z,100519.45
2022-09-01T20:56:27.932Z,100517.55
2022-09-01T21:01:43.625Z,100522.33
2022-09-01T21:06:56.749Z,100526.52
2022-09-01T21:12:10.792Z,100532.58
2022-09-01T21:17:27.431Z,100532.84
2022-09-01T21:22:35.327Z,100536.59
2022-09-01T21:27:52.566Z,100532.56
2022-09-01T21:33:00.223Z,100537.84
2022-09-01T21:38:07.909Z,100543.46
2022-09-01T21:43:19.121Z,100543.80
2022-09-01T21:48:26.668Z,100543.73
2022-09-01T21:53:34.211Z,100539.25
2022-09-01T21:58:42.858Z,100548.30
2022-09-01T22:03:57.550Z,100545.94
2022-09-01T22:09:20.839Z,100547.27
2022-09-01T22:14:29.664Z,100549.61
2022-09-01T22:19:38.550Z,100554.77
2022-09-01T22:24:46.567Z,100550.27
2022-09-01T22:29:54.391Z,100547.27
2022-09-01T22:35:03.722Z,100542.73
2022-09-01T22:40:13.942Z,100548.17
2022-09-01T22:45:21.345Z,100548.73
2022-09-01T22:50:29.210Z,100550.80
2022-09-01T22:55:40.572Z,100551.52
2022-09-01T23:00:54.279Z,100549.56
2022-09-01T23:06:10.891Z,100543.94
2022-09-01T23:11:18.498Z,100549.73
2022-09-01T23:16:27.411Z,100550.25
2022-09-01T23:21:37.449Z,100549.73
2022-09-01T23:26:44.908Z,100551.48
2022-09-01T23:31:52.719Z,100557.06
2022-09-01T23:37:00.286Z,100556.34
2022-09-01T23:42:08.655Z,100555.23
2022-09-01T23:47:16.467Z,100555.19
2022-09-01T23:52:24.076Z,100558.28
2022-09-01T23:57:31.790Z,100558.92
